Time;durP1;ratioP1;P1;durP2;ratioP2;P2;SDS_P1;SDS_P2;PMS_P1;PMS_P2;Temp;Humidity;BMP_temperature;BMP_pressure;BME280_temperature;BME280_humidity;BME280_pressure;Samples;Min_cycle;Max_cycle;Signal;HPM_P1;HPM_P2
2024/03/08 00:00:33;;;;;;;46.40;22.17;;;1.40;99.90;;;;;;7590642;19;20020;-73
2024/03/08 00:03:05;;;;;;;48.60;21.38;;;1.40;99.90;;;;;;7585006;19;20025;-74
2024/03/08 00:05:38;;;;;;;41.33;20.77;;;1.40;99.90;;;;;;7600072;19;20590;-74
2024/03/08 00:08:11;;;;;;;44.63;21.45;;;1.40;99.90;;;;;;7579565;19;20657;-73
2024/03/08 00:10:43;;;;;;;42.53;20.70;;;1.40;99.90;;;;;;7591904;19;20022;-74
2024/03/08 00:13:16;;;;;;;43.63;20.60;;;1.40;99.90;;;;;;7573961;19;20018;-74
2024/03/08 00:15:48;;;;;;;40.37;20.27;;;1.40;99.90;;;;;;7586572;19;20046;-74
2024/03/08 00:18:21;;;;;;;40.53;19.90;;;1.30;99.90;;;;;;7581972;19;20018;-74
2024/03/08 00:20:53;;;;;;;48.90;21.48;;;1.30;99.90;;;;;;7577554;19;20134;-74
2024/03/08 00:23:26;;;;;;;45.53;21.25;;;1.30;99.90;;;;;;7583842;19;20766;-74
2024/03/08 00:25:58;;;;;;;44.47;20.90;;;1.30;99.90;;;;;;7583750;19;20019;-73
2024/03/08 00:28:30;;;;;;;44.55;22.45;;;1.30;99.90;;;;;;7590702;19;20023;-74
2024/03/08 00:31:03;;;;;;;44.85;22.48;;;1.30;99.90;;;;;;7580571;19;20894;-74
2024/03/08 00:33:36;;;;;;;48.72;21.08;;;1.30;99.90;;;;;;7585084;19;20030;-74
2024/03/08 00:36:09;;;;;;;45.75;21.95;;;1.30;99.90;;;;;;7566122;19;20026;-74
2024/03/08 00:38:42;;;;;;;46.20;21.65;;;1.20;99.90;;;;;;7590274;19;20067;-74
2024/03/08 00:41:14;;;;;;;42.83;21.42;;;1.20;99.90;;;;;;7586648;19;20010;-74
2024/03/08 00:43:47;;;;;;;46.10;20.77;;;1.20;99.90;;;;;;7581866;19;20015;-73
2024/03/08 00:46:19;;;;;;;47.45;20.83;;;1.20;99.90;;;;;;7580870;19;22443;-73
2024/03/08 00:48:52;;;;;;;45.85;21.15;;;1.20;99.90;;;;;;7582693;19;20062;-73
2024/03/08 00:51:24;;;;;;;47.85;21.17;;;1.20;99.90;;;;;;7588933;19;21051;-73
2024/03/08 00:53:56;;;;;;;48.17;22.42;;;1.10;99.90;;;;;;7594220;19;20058;-75
2024/03/08 00:56:29;;;;;;;42.63;20.45;;;1.10;99.90;;;;;;7536413;19;20064;-74
2024/03/08 00:59:02;;;;;;;49.53;22.83;;;1.10;99.90;;;;;;7530863;19;20070;-75
2024/03/08 01:01:34;;;;;;;46.10;21.57;;;1.10;99.90;;;;;;7584190;19;20061;-75
2024/03/08 01:04:07;;;;;;;46.13;22.92;;;1.10;99.90;;;;;;7573537;19;20275;-75
2024/03/08 01:06:40;;;;;;;45.45;20.13;;;1.10;99.90;;;;;;7547656;19;20450;-75
2024/03/08 01:09:12;;;;;;;48.40;22.58;;;1.00;99.90;;;;;;7501919;19;20022;-74
2024/03/08 01:11:44;;;;;;;48.78;22.33;;;1.10;99.90;;;;;;7559210;19;20796;-75
2024/03/08 01:14:17;;;;;;;49.00;22.63;;;1.10;99.90;;;;;;7544081;19;20396;-74
2024/03/08 01:16:50;;;;;;;40.08;20.77;;;1.00;99.90;;;;;;7555656;19;20061;-76
2024/03/08 01:19:23;;;;;;;46.22;22.80;;;1.00;99.90;;;;;;7540804;19;20003;-73
2024/03/08 01:21:56;;;;;;;46.22;22.83;;;1.00;99.90;;;;;;7583292;19;20022;-74
2024/03/08 01:24:29;;;;;;;42.63;21.63;;;1.00;99.90;;;;;;7596018;19;20087;-76
2024/03/08 01:27:02;;;;;;;50.72;23.13;;;1.00;99.90;;;;;;7588391;19;20587;-74
2024/03/08 01:29:35;;;;;;;45.90;21.73;;;1.00;99.90;;;;;;7601049;19;20869;-76
2024/03/08 01:32:08;;;;;;;47.28;21.98;;;0.90;99.90;;;;;;7590052;19;20049;-75
2024/03/08 01:34:40;;;;;;;50.80;24.00;;;0.90;99.90;;;;;;7590154;19;20097;-73
2024/03/08 01:37:14;;;;;;;48.15;23.83;;;1.00;99.90;;;;;;7586104;19;20578;-76
2024/03/08 01:39:47;;;;;;;50.75;22.10;;;0.90;99.90;;;;;;7577485;19;20018;-75
2024/03/08 01:42:22;;;;;;;47.03;22.33;;;1.00;99.90;;;;;;7577667;19;20596;-73
2024/03/08 01:44:57;;;;;;;48.38;21.92;;;0.90;99.90;;;;;;7571437;19;20114;-73
2024/03/08 01:47:29;;;;;;;49.23;22.97;;;0.90;99.90;;;;;;7543858;19;20730;-72
2024/03/08 01:50:04;;;;;;;48.63;24.10;;;0.90;99.90;;;;;;7542734;19;20018;-75
2024/03/08 01:52:37;;;;;;;48.30;23.08;;;0.90;99.90;;;;;;7595876;19;20604;-75
2024/03/08 01:55:10;;;;;;;48.20;22.77;;;0.80;99.90;;;;;;7575214;19;20021;-75
2024/03/08 01:57:43;;;;;;;50.13;22.30;;;0.80;99.90;;;;;;7577864;19;20022;-75
2024/03/08 02:00:16;;;;;;;46.90;21.45;;;0.80;99.90;;;;;;7571345;19;20022;-75
2024/03/08 02:02:51;;;;;;;49.28;23.50;;;0.80;99.90;;;;;;7584413;19;20045;-75
2024/03/08 02:05:23;;;;;;;48.50;22.45;;;0.70;99.90;;;;;;7571351;19;20803;-75
2024/03/08 02:07:56;;;;;;;62.85;26.45;;;0.70;99.90;;;;;;7577399;19;20020;-75
2024/03/08 02:10:29;;;;;;;46.20;19.73;;;0.70;99.90;;;;;;7555944;19;21390;-75
2024/03/08 02:13:02;;;;;;;50.47;24.70;;;0.70;99.90;;;;;;7570968;19;20534;-74
2024/03/08 02:15:53;;;;;;;58.08;25.45;;;0.70;99.90;;;;;;7575822;19;20015;-74
2024/03/08 02:18:34;;;;;;;57.55;26.08;;;0.70;99.90;;;;;;7563053;19;20039;-76
2024/03/08 02:21:09;;;;;;;56.28;23.45;;;0.70;99.90;;;;;;7571385;19;20026;-75
2024/03/08 02:23:42;;;;;;;52.83;24.17;;;0.70;99.90;;;;;;7582157;19;20056;-75
2024/03/08 02:26:18;;;;;;;51.28;23.55;;;0.70;99.90;;;;;;7520384;19;20308;-76
2024/03/08 02:28:50;;;;;;;49.80;23.33;;;0.70;99.90;;;;;;7572883;19;20011;-73
2024/03/08 02:31:23;;;;;;;49.63;23.17;;;0.60;99.90;;;;;;7552469;19;21369;-76
2024/03/08 02:33:55;;;;;;;46.72;22.67;;;0.60;99.90;;;;;;7568572;19;20772;-75
2024/03/08 02:36:27;;;;;;;50.30;23.77;;;0.60;99.90;;;;;;7559322;19;20011;-73
2024/03/08 02:39:02;;;;;;;49.92;23.42;;;0.60;99.90;;;;;;7574975;19;20385;-75
2024/03/08 02:41:35;;;;;;;55.80;23.55;;;0.60;99.90;;;;;;7534897;19;20014;-75
2024/03/08 02:44:07;;;;;;;51.80;22.35;;;0.70;99.90;;;;;;7555534;19;20057;-75
2024/03/08 02:46:40;;;;;;;57.80;24.03;;;0.60;99.90;;;;;;7553733;19;20018;-76
2024/03/08 02:49:12;;;;;;;52.47;24.67;;;0.60;99.90;;;;;;7562630;19;20511;-73
2024/03/08 02:51:46;;;;;;;53.03;23.30;;;0.60;99.90;;;;;;7584223;19;20685;-73
2024/03/08 02:54:19;;;;;;;52.20;24.08;;;0.60;99.90;;;;;;7550345;19;20052;-76
2024/03/08 02:56:52;;;;;;;53.55;23.42;;;0.60;99.90;;;;;;7567819;19;20017;-75
2024/03/08 02:59:24;;;;;;;53.15;23.60;;;0.60;99.90;;;;;;7569810;19;20018;-75
2024/03/08 03:01:57;;;;;;;56.20;25.55;;;0.60;99.90;;;;;;7578953;19;20023;-73
2024/03/08 03:04:30;;;;;;;52.65;24.17;;;0.60;99.90;;;;;;7574106;19;20668;-73
2024/03/08 03:07:04;;;;;;;53.75;23.42;;;0.50;99.90;;;;;;7568871;19;20025;-76
2024/03/08 03:09:37;;;;;;;56.05;24.83;;;0.50;99.90;;;;;;7575271;19;20014;-75
2024/03/08 03:12:09;;;;;;;59.15;24.98;;;0.50;99.90;;;;;;7577045;19;20010;-75
2024/03/08 03:14:41;;;;;;;54.22;25.42;;;0.50;99.90;;;;;;7569035;19;20068;-73
2024/03/08 03:17:14;;;;;;;55.15;24.23;;;0.50;99.90;;;;;;7553965;19;20015;-76
2024/03/08 03:19:46;;;;;;;56.30;24.37;;;0.50;99.90;;;;;;7565999;19;20022;-74
2024/03/08 03:22:19;;;;;;;55.85;24.00;;;0.50;99.90;;;;;;7546433;19;20378;-73
2024/03/08 03:24:53;;;;;;;53.50;24.83;;;0.50;99.90;;;;;;7537620;19;20201;-76
2024/03/08 03:27:25;;;;;;;53.10;25.23;;;0.50;99.90;;;;;;7565391;19;20036;-73
2024/03/08 03:29:58;;;;;;;65.00;26.07;;;0.50;99.90;;;;;;7574685;19;21181;-76
2024/03/08 03:32:31;;;;;;;61.20;26.15;;;0.40;99.90;;;;;;7560748;19;20029;-75
2024/03/08 03:35:05;;;;;;;55.83;24.98;;;0.40;99.90;;;;;;7564890;19;20386;-75
2024/03/08 03:37:39;;;;;;;52.60;25.02;;;0.40;99.90;;;;;;7568314;19;20018;-74
2024/03/08 03:40:13;;;;;;;54.63;23.95;;;0.40;99.90;;;;;;7565027;19;20659;-74
2024/03/08 03:42:45;;;;;;;59.92;26.13;;;0.40;99.90;;;;;;7563962;19;20022;-73
2024/03/08 03:45:19;;;;;;;56.45;25.88;;;0.40;99.90;;;;;;7566088;19;20033;-74
2024/03/08 03:47:52;;;;;;;59.90;26.08;;;0.40;99.90;;;;;;7578216;19;20463;-74
2024/03/08 03:50:24;;;;;;;58.88;27.35;;;0.30;99.90;;;;;;7568381;19;20060;-74
2024/03/08 03:52:57;;;;;;;63.08;27.67;;;0.30;99.90;;;;;;7567663;19;20334;-73
2024/03/08 03:55:29;;;;;;;65.00;28.30;;;0.30;99.90;;;;;;7561568;19;20010;-75
2024/03/08 03:58:02;;;;;;;58.08;26.08;;;0.30;99.90;;;;;;7584836;19;20025;-75
2024/03/08 04:00:34;;;;;;;63.92;28.48;;;0.30;99.90;;;;;;7564629;19;20017;-73
2024/03/08 04:03:08;;;;;;;64.25;28.17;;;0.30;99.90;;;;;;7577787;19;20049;-74
2024/03/08 04:05:41;;;;;;;61.85;27.48;;;0.30;99.90;;;;;;7571172;19;20023;-76
2024/03/08 04:08:13;;;;;;;69.53;28.63;;;0.20;99.90;;;;;;7584772;19;21089;-76
2024/03/08 04:10:46;;;;;;;71.03;29.23;;;0.20;99.90;;;;;;7557563;19;20106;-75
2024/03/08 04:13:20;;;;;;;67.93;29.60;;;0.30;99.90;;;;;;7578528;19;20018;-75
2024/03/08 04:15:52;;;;;;;65.65;29.98;;;0.20;99.90;;;;;;7569836;19;21083;-75
2024/03/08 04:18:24;;;;;;;69.15;30.10;;;0.20;99.90;;;;;;7562333;19;20011;-75
2024/03/08 04:20:57;;;;;;;71.47;30.33;;;0.20;99.90;;;;;;7566946;19;20022;-75
2024/03/08 04:23:30;;;;;;;67.57;29.80;;;0.20;99.90;;;;;;7566261;19;20014;-75
2024/03/08 04:26:04;;;;;;;72.35;30.63;;;0.20;99.90;;;;;;7558202;19;20010;-75
2024/03/08 04:28:37;;;;;;;72.93;31.85;;;0.20;99.90;;;;;;7553955;19;20052;-75
2024/03/08 04:31:10;;;;;;;68.45;30.90;;;0.10;99.90;;;;;;7550503;19;20041;-75
2024/03/08 04:33:44;;;;;;;76.13;30.25;;;0.10;99.90;;;;;;7561384;19;20405;-76
2024/03/08 04:36:16;;;;;;;80.47;33.15;;;0.20;99.90;;;;;;7563137;19;20040;-73
2024/03/08 04:38:49;;;;;;;67.17;31.10;;;0.20;99.90;;;;;;7553807;19;20614;-73
2024/03/08 04:41:23;;;;;;;68.38;30.48;;;0.10;99.90;;;;;;7574210;19;20018;-75
2024/03/08 04:43:57;;;;;;;76.32;31.20;;;0.10;99.90;;;;;;7575295;19;20048;-75
2024/03/08 04:46:30;;;;;;;71.45;30.90;;;0.10;99.90;;;;;;7569865;19;20015;-76
2024/03/08 04:49:02;;;;;;;77.15;32.63;;;0.10;99.90;;;;;;7568768;19;20044;-75
2024/03/08 04:51:35;;;;;;;76.40;30.45;;;0.10;99.90;;;;;;7561348;19;21009;-75
2024/03/08 04:54:08;;;;;;;74.28;32.08;;;0.10;99.90;;;;;;7557870;19;21185;-74
2024/03/08 04:56:40;;;;;;;71.30;30.30;;;0.10;99.90;;;;;;7548482;19;20017;-73
2024/03/08 04:59:13;;;;;;;71.55;30.02;;;0.10;99.90;;;;;;7589799;19;20021;-73
2024/03/08 05:01:45;;;;;;;68.28;29.17;;;0.10;99.90;;;;;;7562305;19;20021;-76
2024/03/08 05:04:18;;;;;;;71.45;30.05;;;0.10;99.90;;;;;;7552115;19;20759;-76
2024/03/08 05:06:50;;;;;;;69.13;29.70;;;0.10;99.90;;;;;;7552670;19;20025;-73
2024/03/08 05:09:23;;;;;;;69.15;29.48;;;0.10;99.90;;;;;;7536704;19;20022;-76
2024/03/08 05:11:58;;;;;;;69.82;29.48;;;0.10;99.90;;;;;;7555679;19;20793;-76
2024/03/08 05:14:31;;;;;;;73.20;30.15;;;0.10;99.90;;;;;;7569437;19;20464;-76
2024/03/08 05:17:06;;;;;;;77.15;31.27;;;0.10;99.90;;;;;;7557377;19;20195;-76
2024/03/08 05:19:39;;;;;;;66.68;28.13;;;0.10;99.90;;;;;;7555904;19;20122;-75
2024/03/08 05:22:11;;;;;;;72.38;30.77;;;0.10;99.90;;;;;;7576362;19;20014;-76
2024/03/08 05:24:47;;;;;;;72.38;29.77;;;0.10;99.90;;;;;;7550483;19;20011;-75
2024/03/08 05:27:19;;;;;;;69.70;29.03;;;0.10;99.90;;;;;;7580109;19;20659;-76
2024/03/08 05:29:51;;;;;;;70.80;29.05;;;0.20;99.90;;;;;;7578918;19;21738;-75
2024/03/08 05:32:24;;;;;;;69.70;29.65;;;0.20;99.90;;;;;;7559103;19;20035;-76
2024/03/08 05:34:59;;;;;;;69.68;29.60;;;0.20;99.90;;;;;;7570656;19;20099;-76
2024/03/08 05:37:31;;;;;;;71.57;29.03;;;0.20;99.90;;;;;;7573110;19;20018;-77
2024/03/08 05:40:08;;;;;;;69.55;30.83;;;0.20;99.90;;;;;;7568275;19;20044;-76
2024/03/08 05:42:47;;;;;;;66.97;29.17;;;0.30;99.90;;;;;;7568535;19;20006;-75
2024/03/08 05:45:20;;;;;;;70.53;29.65;;;0.30;99.90;;;;;;7578799;19;20018;-77
2024/03/08 05:47:53;;;;;;;67.57;28.47;;;0.30;99.90;;;;;;7549272;19;20017;-78
2024/03/08 05:50:27;;;;;;;67.25;31.02;;;0.30;99.90;;;;;;7576140;19;20044;-78
2024/03/08 05:52:59;;;;;;;75.40;31.42;;;0.40;99.90;;;;;;7601679;19;20011;-77
2024/03/08 05:55:35;;;;;;;70.30;29.00;;;0.50;99.90;;;;;;7603125;19;20078;-79
2024/03/08 05:58:08;;;;;;;71.60;29.92;;;0.50;99.90;;;;;;7587726;19;20082;-78
2024/03/08 06:00:41;;;;;;;69.73;29.87;;;0.50;99.90;;;;;;7568279;19;20017;-78
2024/03/08 06:03:13;;;;;;;70.05;30.60;;;0.50;99.90;;;;;;7573281;19;20363;-81
2024/03/08 06:05:46;;;;;;;68.82;29.92;;;0.50;99.90;;;;;;7572438;19;20028;-82
2024/03/08 06:08:18;;;;;;;69.32;29.15;;;0.50;99.90;;;;;;7547094;19;20022;-79
2024/03/08 06:10:52;;;;;;;69.35;28.77;;;0.50;99.90;;;;;;7521388;19;20793;-79
2024/03/08 06:13:24;;;;;;;;;;;0.50;99.90;;;;;;7534062;19;20018;-77
2024/03/08 06:16:04;;;;;;;65.13;27.35;;;0.50;99.90;;;;;;7565212;19;19914;-78
2024/03/08 06:18:37;;;;;;;69.07;28.25;;;0.50;99.90;;;;;;7571507;19;20022;-78
2024/03/08 06:21:11;;;;;;;68.30;30.25;;;0.50;99.90;;;;;;7544910;19;20511;-78
2024/03/08 06:23:45;;;;;;;65.72;28.75;;;0.50;99.90;;;;;;7574451;19;20009;-78
2024/03/08 06:26:18;;;;;;;68.75;30.50;;;0.50;99.90;;;;;;7571446;19;20010;-78
2024/03/08 06:28:50;;;;;;;69.97;29.77;;;0.50;99.90;;;;;;7555836;19;20025;-78
2024/03/08 06:31:24;;;;;;;72.03;30.77;;;0.60;99.90;;;;;;7531904;19;20094;-81
2024/03/08 06:33:57;;;;;;;73.05;29.33;;;0.60;99.90;;;;;;7577278;19;20055;-80
2024/03/08 06:36:30;;;;;;;70.45;29.50;;;0.60;99.90;;;;;;7598734;19;20019;-81
2024/03/08 06:39:08;;;;;;;69.00;28.63;;;0.60;99.90;;;;;;7587757;19;21236;-78
2024/03/08 06:41:44;;;;;;;72.28;29.45;;;0.60;99.90;;;;;;7612286;19;20084;-79
2024/03/08 06:44:16;;;;;;;66.50;27.65;;;0.70;99.90;;;;;;7590802;19;20024;-79
2024/03/08 06:46:49;;;;;;;70.28;29.38;;;0.70;99.90;;;;;;7595575;19;20043;-79
2024/03/08 06:49:22;;;;;;;65.43;28.83;;;0.70;99.90;;;;;;7597988;19;20026;-81
2024/03/08 06:51:54;;;;;;;63.45;28.42;;;0.80;99.90;;;;;;7588367;19;21002;-82
2024/03/08 06:54:30;;;;;;;65.45;27.27;;;0.70;99.90;;;;;;7590208;19;20017;-81
2024/03/08 06:57:04;;;;;;;63.20;28.67;;;0.70;99.90;;;;;;7578280;19;20010;-80
2024/03/08 06:59:37;;;;;;;66.85;28.23;;;0.80;99.90;;;;;;7588028;19;20624;-81
2024/03/08 07:02:10;;;;;;;66.15;28.52;;;0.80;99.90;;;;;;7565395;19;20022;-80
2024/03/08 07:04:43;;;;;;;64.43;26.27;;;0.80;99.90;;;;;;7575020;19;20011;-80
2024/03/08 07:07:16;;;;;;;68.60;28.42;;;0.80;99.90;;;;;;7562189;19;20032;-80
2024/03/08 07:09:51;;;;;;;63.67;28.23;;;0.90;99.90;;;;;;7538532;19;20020;-80
2024/03/08 07:12:28;;;;;;;68.15;28.20;;;0.90;99.90;;;;;;7588871;19;20026;-83
2024/03/08 07:15:01;;;;;;;60.53;26.75;;;0.90;99.90;;;;;;7590127;19;20014;-80
2024/03/08 07:17:35;;;;;;;60.97;26.98;;;1.00;99.90;;;;;;7594591;19;20017;-80
2024/03/08 07:20:11;;;;;;;67.18;28.52;;;1.00;99.90;;;;;;7579382;19;20011;-79
2024/03/08 07:22:47;;;;;;;65.63;29.65;;;1.00;99.90;;;;;;7584575;19;20022;-80
2024/03/08 07:25:23;;;;;;;66.22;27.90;;;1.00;99.90;;;;;;7588006;19;20540;-79
2024/03/08 07:28:00;;;;;;;65.47;27.25;;;1.10;99.90;;;;;;7577294;19;20078;-80
2024/03/08 07:33:18;;;;;;;63.72;27.95;;;1.30;99.90;;;;;;7585175;19;20034;-80
2024/03/08 07:35:51;;;;;;;63.60;28.02;;;1.30;99.90;;;;;;7592570;19;20022;-80
2024/03/08 07:38:24;;;;;;;61.38;27.10;;;1.30;99.90;;;;;;7584598;19;21912;-81
2024/03/08 07:40:57;;;;;;;58.58;26.63;;;1.40;99.90;;;;;;7592782;19;20010;-81
2024/03/08 07:43:30;;;;;;;59.45;26.35;;;1.50;99.90;;;;;;7598742;19;20897;-80
2024/03/08 07:46:02;;;;;;;61.75;27.10;;;1.50;99.90;;;;;;7588037;19;20022;-80
2024/03/08 07:48:36;;;;;;;56.20;25.88;;;1.60;99.90;;;;;;7579535;19;20013;-79
2024/03/08 07:51:09;;;;;;;59.25;26.48;;;1.60;99.90;;;;;;7582014;19;20039;-80
2024/03/08 07:53:43;;;;;;;57.30;26.30;;;1.60;99.90;;;;;;7577535;19;20018;-79
2024/03/08 07:56:18;;;;;;;58.63;26.40;;;1.70;99.90;;;;;;7584288;19;20901;-80
2024/03/08 07:58:51;;;;;;;56.70;25.50;;;1.70;99.90;;;;;;7585425;19;20018;-80
2024/03/08 08:01:24;;;;;;;55.80;25.00;;;1.80;99.90;;;;;;7591632;19;20011;-80
2024/03/08 08:03:57;;;;;;;67.40;28.50;;;1.80;99.90;;;;;;7579284;19;20018;-79
2024/03/08 08:06:33;;;;;;;59.85;25.48;;;1.90;99.90;;;;;;7585393;19;20022;-80
2024/03/08 08:09:05;;;;;;;64.85;27.33;;;1.90;99.90;;;;;;7590716;19;20044;-79
2024/03/08 08:11:38;;;;;;;57.90;24.48;;;2.00;99.90;;;;;;7593770;19;20025;-80
2024/03/08 08:14:13;;;;;;;60.85;25.90;;;2.00;99.90;;;;;;7580421;19;21288;-80
2024/03/08 08:16:45;;;;;;;54.95;26.20;;;2.10;99.90;;;;;;7592611;19;20044;-80
2024/03/08 08:19:18;;;;;;;63.03;26.80;;;2.20;99.90;;;;;;7558788;19;20018;-78
2024/03/08 08:21:51;;;;;;;59.90;26.33;;;2.30;99.90;;;;;;7571472;19;20025;-80
2024/03/08 08:24:24;;;;;;;57.95;25.80;;;2.40;99.90;;;;;;7580551;19;20018;-80
2024/03/08 08:26:56;;;;;;;56.30;27.13;;;2.40;99.90;;;;;;7563270;19;20891;-78
2024/03/08 08:29:30;;;;;;;64.38;26.35;;;2.50;99.90;;;;;;7579725;19;21210;-79
2024/03/08 08:32:03;;;;;;;57.05;25.15;;;2.50;99.90;;;;;;7570080;19;20057;-79
2024/03/08 08:34:36;;;;;;;57.20;25.75;;;2.50;99.90;;;;;;7583298;19;20018;-78
2024/03/08 08:37:09;;;;;;;62.20;26.73;;;2.60;99.90;;;;;;7600496;19;21171;-77
2024/03/08 08:39:42;;;;;;;58.15;27.50;;;2.60;99.90;;;;;;7609063;19;20015;-77
2024/03/08 08:42:15;;;;;;;52.07;25.93;;;2.60;99.90;;;;;;7588376;19;20014;-80
2024/03/08 08:44:49;;;;;;;51.80;24.70;;;2.70;99.90;;;;;;7587984;19;20030;-78
2024/03/08 08:47:24;;;;;;;56.30;23.83;;;2.80;99.90;;;;;;7540732;19;21866;-79
2024/03/08 08:49:57;;;;;;;52.53;24.10;;;2.80;99.90;;;;;;7553195;19;20270;-77
2024/03/08 08:52:29;;;;;;;52.80;24.17;;;2.90;99.90;;;;;;7572253;19;20310;-81
2024/03/08 08:55:04;;;;;;;53.65;24.27;;;3.00;99.90;;;;;;7561013;19;21167;-79
2024/03/08 08:57:37;;;;;;;50.45;23.40;;;3.00;99.90;;;;;;7559112;19;20018;-79
2024/03/08 09:00:15;;;;;;;49.90;23.40;;;3.10;99.90;;;;;;7571920;19;20017;-77
2024/03/08 09:02:51;;;;;;;51.35;24.25;;;3.10;99.90;;;;;;7563610;19;20022;-79
2024/03/08 09:05:24;;;;;;;52.55;23.13;;;3.20;99.90;;;;;;7583977;19;20019;-80
2024/03/08 09:07:57;;;;;;;55.63;25.63;;;3.20;99.90;;;;;;7585396;19;20050;-80
2024/03/08 09:10:30;;;;;;;54.35;23.50;;;3.30;99.90;;;;;;7593209;19;20021;-80
2024/03/08 09:13:04;;;;;;;53.28;22.20;;;3.40;99.90;;;;;;7598995;19;20833;-79
2024/03/08 09:15:40;;;;;;;53.03;22.85;;;3.40;99.90;;;;;;7594967;19;20105;-78
2024/03/08 09:18:12;;;;;;;52.88;23.58;;;3.50;99.90;;;;;;7577032;19;20030;-80
2024/03/08 09:20:45;;;;;;;52.85;23.90;;;3.50;99.90;;;;;;7588304;19;20018;-80
2024/03/08 09:23:21;;;;;;;47.83;22.88;;;3.60;99.90;;;;;;7568561;19;20014;-79
2024/03/08 09:25:53;;;;;;;49.30;22.55;;;3.70;99.90;;;;;;7567300;19;21021;-78
2024/03/08 09:28:27;;;;;;;55.10;23.27;;;3.70;99.90;;;;;;7586334;19;20022;-78
2024/03/08 09:31:01;;;;;;;;;;;3.80;99.90;;;;;;7536737;19;20030;-78
2024/03/08 09:33:33;;;;;;;48.92;23.42;;;3.90;99.90;;;;;;7542897;19;20952;-78
2024/03/08 09:36:08;;;;;;;52.85;24.00;;;4.00;99.90;;;;;;7562384;19;21070;-79
2024/03/08 09:38:41;;;;;;;50.55;23.42;;;4.00;99.90;;;;;;7573808;19;20056;-78
2024/03/08 09:41:15;;;;;;;52.35;24.77;;;4.10;99.90;;;;;;7595634;19;20412;-79
2024/03/08 09:43:48;;;;;;;54.90;22.50;;;4.20;99.90;;;;;;7579566;19;20030;-79
2024/03/08 09:46:22;;;;;;;53.50;25.25;;;4.20;99.90;;;;;;7581226;19;20024;-78
2024/03/08 09:48:56;;;;;;;47.25;22.50;;;4.30;99.90;;;;;;7562398;19;20006;-78
2024/03/08 09:51:31;;;;;;;53.15;23.17;;;4.40;99.90;;;;;;7575789;19;20023;-80
2024/03/08 09:54:04;;;;;;;47.53;22.48;;;4.40;99.90;;;;;;7563676;19;20022;-79
2024/03/08 09:56:50;;;;;;;48.20;22.92;;;4.40;99.90;;;;;;7547307;19;20018;-79
2024/03/08 10:01:56;;;;;;;49.00;24.25;;;4.60;99.90;;;;;;7560144;19;20530;-80
2024/03/08 10:04:30;;;;;;;59.80;28.40;;;4.60;99.90;;;;;;7575957;19;20015;-79
2024/03/08 10:07:03;;;;;;;45.90;22.85;;;4.70;99.90;;;;;;7552441;19;20018;-78
2024/03/08 10:09:35;;;;;;;49.85;23.20;;;4.80;99.90;;;;;;7566744;19;20023;-78
2024/03/08 10:12:09;;;;;;;48.25;23.08;;;4.80;99.90;;;;;;7562057;19;21237;-79
2024/03/08 10:14:42;;;;;;;45.63;22.92;;;4.80;99.90;;;;;;7583575;19;20026;-78
2024/03/08 10:17:14;;;;;;;46.83;23.80;;;4.80;99.90;;;;;;7572388;19;20050;-78
2024/03/08 10:19:51;;;;;;;48.25;23.33;;;4.90;99.90;;;;;;7591241;19;20030;-79
2024/03/08 10:22:25;;;;;;;39.58;19.75;;;4.90;99.90;;;;;;7592579;19;20022;-77
2024/03/08 10:24:58;;;;;;;39.70;19.92;;;5.00;99.90;;;;;;7592742;19;20025;-79
2024/03/08 10:27:30;;;;;;;44.03;21.43;;;5.10;99.90;;;;;;7584780;19;20014;-78
2024/03/08 10:30:04;;;;;;;41.33;21.02;;;5.20;99.90;;;;;;7588583;19;20035;-80
2024/03/08 10:32:36;;;;;;;43.47;22.17;;;5.30;99.90;;;;;;7589273;19;20774;-79
2024/03/08 10:35:09;;;;;;;45.08;21.67;;;5.30;99.90;;;;;;7594388;19;20090;-79
2024/03/08 10:37:46;;;;;;;48.92;22.67;;;5.40;99.90;;;;;;7597531;19;20022;-80
2024/03/08 10:40:20;;;;;;;45.17;22.27;;;5.50;99.90;;;;;;7597960;19;20097;-79
2024/03/08 10:42:57;;;;;;;38.67;19.80;;;5.60;99.90;;;;;;7589805;19;20070;-79
2024/03/08 10:45:43;;;;;;;40.97;19.98;;;5.90;99.90;;;;;;7583003;19;20880;-78
2024/03/08 10:48:24;;;;;;;44.92;21.13;;;5.90;99.90;;;;;;7589447;19;20018;-79
2024/03/08 10:50:57;;;;;;;40.97;18.70;;;6.00;99.90;;;;;;7545455;19;20052;-79
2024/03/08 10:53:30;;;;;;;36.58;20.33;;;6.00;99.90;;;;;;7558873;19;20019;-78
2024/03/08 10:56:03;;;;;;;40.00;21.03;;;;;;;;;;7564626;19;20054;-80
2024/03/08 10:58:38;;;;;;;40.43;19.70;;;;;;;;;;7576257;19;20018;-78
2024/03/08 11:01:11;;;;;;;44.10;20.80;;;;;;;;;;7561384;19;20259;-81
2024/03/08 11:03:45;;;;;;;35.53;18.52;;;;;;;;;;7546508;19;20740;-79
2024/03/08 11:06:18;;;;;;;;;;;;;;;;;;7570045;19;21101;-79
2024/03/08 11:08:51;;;;;;;34.75;19.20;;;;;;;;;;7550927;19;19929;-78
2024/03/08 11:11:27;;;;;;;36.78;18.63;;;;;;;;;;7567000;19;20925;-79
2024/03/08 11:14:05;;;;;;;37.13;18.35;;;;;;;;;;7537986;19;20014;-78
2024/03/08 11:16:40;;;;;;;;;;;;;;;;;;7558788;19;20717;-76
2024/03/08 11:19:24;;;;;;;41.40;19.13;;;;;;;;;;7559012;19;19943;-76
2024/03/08 11:22:01;;;;;;;40.13;19.65;;;;;;;;;;7543996;19;20022;-75
2024/03/08 11:24:40;;;;;;;40.97;20.27;;;;;;;;;;7557471;19;20973;-73
2024/03/08 11:27:13;;;;;;;36.97;19.13;;;;;;;;;;7541179;19;20500;-76
2024/03/08 11:29:59;;;;;;;43.25;21.08;;;;;;;;;;7561080;19;20762;-75
2024/03/08 11:32:32;;;;;;;38.83;19.55;;;6.10;99.90;;;;;;7552920;19;20014;-72
2024/03/08 11:35:22;;;;;;;37.20;19.88;;;7.70;99.90;;;;;;7549305;19;20022;-75
2024/03/08 11:38:00;;;;;;;42.10;19.77;;;7.80;99.90;;;;;;7561071;19;20628;-76
2024/03/08 11:40:33;;;;;;;43.95;21.88;;;8.00;99.90;;;;;;7562545;19;20921;-77
2024/03/08 11:43:07;;;;;;;39.95;19.80;;;8.20;99.90;;;;;;7573959;19;20396;-77
2024/03/08 11:45:40;;;;;;;38.38;20.60;;;8.50;99.90;;;;;;7559975;19;20044;-77
2024/03/08 11:48:14;;;;;;;37.90;20.42;;;8.80;99.90;;;;;;7556044;19;21138;-79
2024/03/08 11:51:01;;;;;;;38.65;20.38;;;9.40;99.90;;;;;;7569782;19;20022;-78
2024/03/08 11:53:36;;;;;;;38.38;19.20;;;10.10;99.90;;;;;;7576341;19;20017;-78
2024/03/08 11:56:13;;;;;;;37.90;19.25;;;10.70;99.90;;;;;;7543454;19;20527;-81
2024/03/08 11:58:58;;;;;;;37.10;21.15;;;11.00;99.00;;;;;;7580216;19;20106;-77
2024/03/08 12:01:34;;;;;;;37.85;20.05;;;11.30;99.90;;;;;;7549557;19;20042;-77
2024/03/08 12:04:11;;;;;;;39.10;21.25;;;11.60;97.60;;;;;;7575052;19;21714;-78
2024/03/08 12:06:47;;;;;;;37.28;20.52;;;11.80;96.00;;;;;;7571387;19;20010;-77
2024/03/08 12:09:22;;;;;;;34.58;19.90;;;12.10;96.90;;;;;;7578428;19;20451;-79
2024/03/08 12:11:54;;;;;;;36.13;19.85;;;12.40;94.50;;;;;;7568013;19;21067;-77
2024/03/08 12:14:27;;;;;;;35.47;20.50;;;;;;;;;;7573767;19;20303;-77
2024/03/08 12:17:04;;;;;;;34.33;19.23;;;;;;;;;;7571743;19;20022;-77
2024/03/08 12:19:38;;;;;;;33.35;19.80;;;12.70;93.70;;;;;;7562027;19;20985;-78
2024/03/08 12:22:11;;;;;;;35.72;19.80;;;13.20;91.90;;;;;;7545839;19;20022;-77
2024/03/08 12:24:44;;;;;;;36.47;20.40;;;13.30;89.50;;;;;;7565993;19;20115;-77
2024/03/08 12:27:20;;;;;;;;;;;13.60;88.50;;;;;;7554125;19;20018;-77
2024/03/08 12:29:55;;;;;;;34.72;18.77;;;13.80;85.60;;;;;;7563748;19;19918;-77
2024/03/08 12:32:29;;;;;;;33.03;19.08;;;14.00;85.70;;;;;;7567384;19;20843;-77
2024/03/08 12:35:04;;;;;;;32.70;18.90;;;13.70;83.20;;;;;;7533330;19;21897;-78
2024/03/08 12:37:38;;;;;;;31.13;19.00;;;13.80;83.20;;;;;;7550359;19;20047;-76
2024/03/08 12:40:11;;;;;;;31.52;18.58;;;14.00;82.30;;;;;;7547375;19;20042;-76
2024/03/08 12:42:47;;;;;;;34.17;19.27;;;14.10;80.90;;;;;;7561999;19;20369;-78
2024/03/08 12:45:21;;;;;;;32.60;18.90;;;13.80;81.50;;;;;;7562606;19;20013;-76
2024/03/08 12:47:55;;;;;;;37.08;20.02;;;13.30;84.20;;;;;;7542247;19;20026;-78
2024/03/08 12:50:29;;;;;;;31.20;19.55;;;13.10;84.10;;;;;;7549863;19;20045;-78
2024/03/08 12:53:01;;;;;;;31.75;18.38;;;13.50;83.40;;;;;;7550688;19;20010;-75
2024/03/08 12:55:38;;;;;;;33.35;19.02;;;14.20;79.70;;;;;;7561214;19;20022;-78
2024/03/08 12:58:11;;;;;;;31.40;18.77;;;14.90;77.90;;;;;;7545225;19;20102;-76
2024/03/08 13:00:43;;;;;;;30.60;17.70;;;15.30;76.70;;;;;;7531050;19;20060;-76
2024/03/08 13:03:16;;;;;;;30.17;18.80;;;15.60;74.00;;;;;;7554330;19;20295;-77
2024/03/08 13:05:49;;;;;;;30.35;17.33;;;15.80;73.10;;;;;;7543779;19;20903;-77
2024/03/08 13:08:24;;;;;;;29.05;17.05;;;15.90;70.90;;;;;;7510942;19;22614;-79
2024/03/08 13:10:57;;;;;;;29.42;17.10;;;16.20;69.50;;;;;;7560374;19;20019;-77
2024/03/08 13:13:30;;;;;;;;;;;16.10;70.00;;;;;;7552421;19;20018;-79
2024/03/08 13:16:08;;;;;;;29.95;17.48;;;16.30;68.60;;;;;;7576307;19;20440;-79
2024/03/08 13:18:44;;;;;;;26.65;16.77;;;16.30;68.50;;;;;;7575194;19;20082;-78
2024/03/08 13:21:19;;;;;;;26.23;16.33;;;16.70;67.80;;;;;;7601926;19;20615;-79